Fulton County Airport Brown Field
KFTY : now visible

Airfield :











YOU CAN JOIN US ON...

 
LOGIN :

Register | Disclaimer

   EN    FR    IT 

 









Legend :    VFR   Marginal VFR   IFR   Intensive IFR   Very Intensive IFR
Visi :
Ceiling :
>= 8 km
>= 3000ft
5 to 8 km
1000 to 3000 ft
1500m to 5 km
500 to 1000 ft
800 to 1500m
200 to 500 ft
< 800m
< 200 ft
Symbols :   Thunderstorms  Fog  Heavy snow  Heavy precipitations  Wind > 20 kt






- Airport Elevation : 841 ft


KFTY - Fulton County Brown Field

CURRENT METAR :
  • 280253Z 23004KT 10SM OVC050 14/08 A2988 RMK AO2 SLP113 T01390078 51012 $

EXPIRED METARs :
  • 280153Z 20004KT 10SM OVC050 14/07 A2987 RMK AO2 SLP111 T01390072 $
  • 272153Z 24006KT 10SM CLR 18/07 A2980 RMK AO2 SLP087 T01780067 $

TAF KFTY
Valid from the 28 at 01:00 until the 29 at 00:00 UTC


280033Z 2801/2824 25007KT P6SM SCT050
FM280600 27006KT P6SM BKN025
FM281500 29007KT P6SM SCT035
FM282300 VRB03KT P6SM SKC
KZTL FIR / North America



MET'MAP, your aeronautical weather chart ! - Copyright ORBIFLY December 2007 - Disclaimer

ORBIFLY MET'MAP TEAM :

Programming & Development : Alexandra Zaïnal
Original concept : Baudouin d'Aumeries
Technical & hardware support : Manuel Goepfert
Assistance : Marc-Olivier Méhu




SOURCES & CREDITS :

   NOAA       Earth
Advisory